sensor_id;sensor_type;location;lat;lon;timestamp;pressure;altitude;pressure_sealevel;temperature;humidity
61345;BME280;47216;42.656;23.232;2023-04-02T00:00:15;93007.53;;;7.72;64.44
61345;BME280;47216;42.656;23.232;2023-04-02T00:02:46;93014.25;;;7.68;64.32
61345;BME280;47216;42.656;23.232;2023-04-02T00:05:47;93019.94;;;7.65;64.91
61345;BME280;47216;42.656;23.232;2023-04-02T00:08:22;93022.50;;;7.60;64.51
61345;BME280;47216;42.656;23.232;2023-04-02T00:10:52;93014.38;;;7.51;65.31
61345;BME280;47216;42.656;23.232;2023-04-02T00:13:23;93008.91;;;7.47;65.77
61345;BME280;47216;42.656;23.232;2023-04-02T00:15:54;92994.69;;;7.55;64.32
61345;BME280;47216;42.656;23.232;2023-04-02T00:18:23;93005.06;;;7.55;64.46
61345;BME280;47216;42.656;23.232;2023-04-02T00:20:52;93008.00;;;7.64;64.06
61345;BME280;47216;42.656;23.232;2023-04-02T00:23:21;93007.47;;;7.62;64.06
61345;BME280;47216;42.656;23.232;2023-04-02T00:25:48;93003.31;;;7.61;64.02
61345;BME280;47216;42.656;23.232;2023-04-02T00:28:17;93004.88;;;7.62;64.04
61345;BME280;47216;42.656;23.232;2023-04-02T00:30:47;93001.25;;;7.63;63.66
61345;BME280;47216;42.656;23.232;2023-04-02T00:33:17;93005.91;;;7.61;63.90
61345;BME280;47216;42.656;23.232;2023-04-02T00:35:45;92999.41;;;7.58;63.50
61345;BME280;47216;42.656;23.232;2023-04-02T00:38:20;92994.03;;;7.70;63.63
61345;BME280;47216;42.656;23.232;2023-04-02T00:40:49;92990.19;;;7.83;62.81
61345;BME280;47216;42.656;23.232;2023-04-02T00:43:17;93001.41;;;7.88;62.54
61345;BME280;47216;42.656;23.232;2023-04-02T00:45:48;93007.16;;;7.95;61.66
61345;BME280;47216;42.656;23.232;2023-04-02T00:48:38;93008.69;;;7.91;62.33
61345;BME280;47216;42.656;23.232;2023-04-02T00:51:13;93003.94;;;7.78;63.52
61345;BME280;47216;42.656;23.232;2023-04-02T00:53:44;93000.34;;;7.84;63.90
61345;BME280;47216;42.656;23.232;2023-04-02T00:56:15;93000.59;;;7.83;62.45
61345;BME280;47216;42.656;23.232;2023-04-02T00:58:49;93001.31;;;7.73;63.44
61345;BME280;47216;42.656;23.232;2023-04-02T01:01:18;93010.19;;;7.82;62.78
61345;BME280;47216;42.656;23.232;2023-04-02T01:03:52;93003.91;;;7.73;62.39
61345;BME280;47216;42.656;23.232;2023-04-02T01:06:24;92995.66;;;7.81;63.57
61345;BME280;47216;42.656;23.232;2023-04-02T01:09:06;93002.97;;;7.89;61.84
61345;BME280;47216;42.656;23.232;2023-04-02T01:11:49;93013.84;;;7.86;62.69
61345;BME280;47216;42.656;23.232;2023-04-02T01:14:31;92994.66;;;7.92;62.42
61345;BME280;47216;42.656;23.232;2023-04-02T01:17:05;92994.44;;;7.99;61.52
61345;BME280;47216;42.656;23.232;2023-04-02T01:20:08;93006.63;;;7.93;60.51
61345;BME280;47216;42.656;23.232;2023-04-02T01:22:43;93008.69;;;7.91;61.55
61345;BME280;47216;42.656;23.232;2023-04-02T01:25:19;93014.94;;;7.95;61.23
61345;BME280;47216;42.656;23.232;2023-04-02T01:27:51;93025.81;;;7.92;60.53
61345;BME280;47216;42.656;23.232;2023-04-02T01:30:22;93019.28;;;7.85;61.72
61345;BME280;47216;42.656;23.232;2023-04-02T01:32:51;93012.81;;;7.87;61.49
61345;BME280;47216;42.656;23.232;2023-04-02T01:35:20;93027.94;;;8.00;61.52
61345;BME280;47216;42.656;23.232;2023-04-02T01:37:52;93025.88;;;8.03;60.53
61345;BME280;47216;42.656;23.232;2023-04-02T01:40:30;93007.47;;;8.04;60.95
61345;BME280;47216;42.656;23.232;2023-04-02T01:43:07;93014.53;;;8.14;61.31
61345;BME280;47216;42.656;23.232;2023-04-02T01:45:37;93010.88;;;8.15;61.03
61345;BME280;47216;42.656;23.232;2023-04-02T01:48:05;93018.63;;;8.05;60.83
61345;BME280;47216;42.656;23.232;2023-04-02T01:50:39;93015.75;;;8.01;60.86
61345;BME280;47216;42.656;23.232;2023-04-02T01:53:09;93022.50;;;8.02;60.73
61345;BME280;47216;42.656;23.232;2023-04-02T01:55:40;93016.78;;;8.00;60.85
61345;BME280;47216;42.656;23.232;2023-04-02T01:58:08;93021.97;;;8.00;61.42
61345;BME280;47216;42.656;23.232;2023-04-02T02:00:42;93022.41;;;7.87;60.94
61345;BME280;47216;42.656;23.232;2023-04-02T02:03:11;93011.75;;;7.83;62.67
61345;BME280;47216;42.656;23.232;2023-04-02T02:05:38;93016.09;;;7.72;62.35
61345;BME280;47216;42.656;23.232;2023-04-02T02:08:14;93010.81;;;7.57;62.73
61345;BME280;47216;42.656;23.232;2023-04-02T02:10:44;93008.22;;;7.57;62.64
61345;BME280;47216;42.656;23.232;2023-04-02T02:13:13;93010.25;;;7.55;62.28
61345;BME280;47216;42.656;23.232;2023-04-02T02:15:41;93008.41;;;7.50;62.25
61345;BME280;47216;42.656;23.232;2023-04-02T02:18:10;93004.31;;;7.54;62.42
61345;BME280;47216;42.656;23.232;2023-04-02T02:20:38;93006.34;;;7.52;62.27
61345;BME280;47216;42.656;23.232;2023-04-02T02:23:05;93001.16;;;7.52;62.58
61345;BME280;47216;42.656;23.232;2023-04-02T02:25:34;92998.56;;;7.47;62.59
61345;BME280;47216;42.656;23.232;2023-04-02T02:28:05;93005.28;;;7.48;62.90
61345;BME280;47216;42.656;23.232;2023-04-02T02:30:35;92999.09;;;7.49;63.28
61345;BME280;47216;42.656;23.232;2023-04-02T02:33:09;93004.28;;;7.49;63.03
61345;BME280;47216;42.656;23.232;2023-04-02T02:35:43;93015.63;;;7.43;62.99
61345;BME280;47216;42.656;23.232;2023-04-02T02:38:26;93007.06;;;7.43;62.82
61345;BME280;47216;42.656;23.232;2023-04-02T02:40:57;93011.75;;;7.46;62.88
61345;BME280;47216;42.656;23.232;2023-04-02T02:43:27;93019.06;;;7.49;62.26
61345;BME280;47216;42.656;23.232;2023-04-02T02:45:54;93021.91;;;7.47;61.91
61345;BME280;47216;42.656;23.232;2023-04-02T02:48:33;93011.28;;;7.49;62.70
61345;BME280;47216;42.656;23.232;2023-04-02T02:51:04;93006.78;;;7.39;62.66
61345;BME280;47216;42.656;23.232;2023-04-02T02:53:44;93017.16;;;7.39;62.36
61345;BME280;47216;42.656;23.232;2023-04-02T02:56:12;93021.56;;;7.39;63.27
61345;BME280;47216;42.656;23.232;2023-04-02T02:58:39;93014.03;;;7.37;62.63
61345;BME280;47216;42.656;23.232;2023-04-02T03:01:06;93005.97;;;7.33;63.71
61345;BME280;47216;42.656;23.232;2023-04-02T03:03:35;93011.91;;;7.29;63.89
61345;BME280;47216;42.656;23.232;2023-04-02T03:06:04;93004.81;;;7.19;63.40
61345;BME280;47216;42.656;23.232;2023-04-02T03:08:33;93011.84;;;7.24;63.65
61345;BME280;47216;42.656;23.232;2023-04-02T03:11:06;93014.94;;;7.21;63.55
61345;BME280;47216;42.656;23.232;2023-04-02T03:13:37;93010.53;;;7.21;63.69
61345;BME280;47216;42.656;23.232;2023-04-02T03:16:10;93008.19;;;7.20;63.60
61345;BME280;47216;42.656;23.232;2023-04-02T03:18:43;93012.94;;;7.28;63.61
61345;BME280;47216;42.656;23.232;2023-04-02T03:21:21;93012.41;;;7.26;63.57
61345;BME280;47216;42.656;23.232;2023-04-02T03:23:54;93013.94;;;7.27;63.73
61345;BME280;47216;42.656;23.232;2023-04-02T03:26:25;93021.69;;;7.22;63.58
61345;BME280;47216;42.656;23.232;2023-04-02T03:28:58;93022.03;;;7.30;62.16
61345;BME280;47216;42.656;23.232;2023-04-02T03:31:32;93021.78;;;7.37;62.61
61345;BME280;47216;42.656;23.232;2023-04-02T03:34:06;93022.91;;;7.46;61.71
61345;BME280;47216;42.656;23.232;2023-04-02T03:36:39;93031.28;;;7.53;62.03
61345;BME280;47216;42.656;23.232;2023-04-02T03:39:15;93032.81;;;7.49;61.89
61345;BME280;47216;42.656;23.232;2023-04-02T03:41:46;93034.84;;;7.47;62.44
61345;BME280;47216;42.656;23.232;2023-04-02T03:44:20;93032.16;;;7.37;62.27
61345;BME280;47216;42.656;23.232;2023-04-02T03:46:51;93018.78;;;7.50;62.18
61345;BME280;47216;42.656;23.232;2023-04-02T03:49:30;93031.22;;;7.48;62.46
61345;BME280;47216;42.656;23.232;2023-04-02T03:52:03;93030.97;;;7.50;61.89
61345;BME280;47216;42.656;23.232;2023-04-02T03:54:31;93031.22;;;7.48;62.00
61345;BME280;47216;42.656;23.232;2023-04-02T03:56:59;93025.56;;;7.51;61.98
61345;BME280;47216;42.656;23.232;2023-04-02T03:59:33;93025.97;;;7.38;62.31
61345;BME280;47216;42.656;23.232;2023-04-02T04:02:12;93028.59;;;7.43;63.00
61345;BME280;47216;42.656;23.232;2023-04-02T04:04:43;93027.53;;;7.39;62.74
61345;BME280;47216;42.656;23.232;2023-04-02T04:07:19;93029.50;;;7.27;62.96
61345;BME280;47216;42.656;23.232;2023-04-02T04:09:49;93032.31;;;7.20;63.07
61345;BME280;47216;42.656;23.232;2023-04-02T04:12:25;93024.25;;;7.17;63.27
61345;BME280;47216;42.656;23.232;2023-04-02T04:14:57;93029.91;;;7.13;63.77
61345;BME280;47216;42.656;23.232;2023-04-02T04:17:31;93027.81;;;7.10;64.09
61345;BME280;47216;42.656;23.232;2023-04-02T04:20:13;93042.88;;;7.13;64.19
61345;BME280;47216;42.656;23.232;2023-04-02T04:22:42;93040.22;;;7.08;64.80
61345;BME280;47216;42.656;23.232;2023-04-02T04:25:19;93043.38;;;7.10;64.56
61345;BME280;47216;42.656;23.232;2023-04-02T04:27:55;93040.72;;;7.05;64.46
61345;BME280;47216;42.656;23.232;2023-04-02T04:30:33;93042.75;;;6.98;64.59
61345;BME280;47216;42.656;23.232;2023-04-02T04:33:11;93048.47;;;7.00;65.11
61345;BME280;47216;42.656;23.232;2023-04-02T04:35:45;93051.13;;;6.83;65.49
61345;BME280;47216;42.656;23.232;2023-04-02T04:38:17;93059.03;;;6.71;65.74
61345;BME280;47216;42.656;23.232;2023-04-02T04:40:49;93059.53;;;6.68;66.11
61345;BME280;47216;42.656;23.232;2023-04-02T04:43:26;93053.63;;;6.51;66.48
61345;BME280;47216;42.656;23.232;2023-04-02T04:45:59;93050.97;;;6.46;66.64
61345;BME280;47216;42.656;23.232;2023-04-02T04:48:33;93054.41;;;6.51;66.83
61345;BME280;47216;42.656;23.232;2023-04-02T04:51:04;93048.56;;;6.61;66.50
61345;BME280;47216;42.656;23.232;2023-04-02T04:53:32;93053.25;;;6.64;66.15
61345;BME280;47216;42.656;23.232;2023-04-02T04:56:10;93055.72;;;6.76;65.54
61345;BME280;47216;42.656;23.232;2023-04-02T04:58:44;93058.66;;;6.85;65.17
61345;BME280;47216;42.656;23.232;2023-04-02T05:01:14;93054.56;;;6.89;64.79
61345;BME280;47216;42.656;23.232;2023-04-02T05:03:45;93054.66;;;6.99;65.22
61345;BME280;47216;42.656;23.232;2023-04-02T05:06:21;93054.28;;;7.12;63.82
61345;BME280;47216;42.656;23.232;2023-04-02T05:08:51;93049.16;;;7.23;64.07
61345;BME280;47216;42.656;23.232;2023-04-02T05:11:27;93053.69;;;7.32;63.41
61345;BME280;47216;42.656;23.232;2023-04-02T05:13:57;93041.56;;;7.43;63.93
61345;BME280;47216;42.656;23.232;2023-04-02T05:16:30;93053.59;;;7.54;63.48
61345;BME280;47216;42.656;23.232;2023-04-02T05:19:04;93055.69;;;7.57;62.63
61345;BME280;47216;42.656;23.232;2023-04-02T05:21:37;93049.56;;;7.74;62.30
61345;BME280;47216;42.656;23.232;2023-04-02T05:24:33;93052.59;;;7.98;60.78
61345;BME280;47216;42.656;23.232;2023-04-02T05:27:14;93054.00;;;8.16;59.66
61345;BME280;47216;42.656;23.232;2023-04-02T05:29:49;93053.25;;;8.20;59.87
61345;BME280;47216;42.656;23.232;2023-04-02T05:32:20;93062.38;;;8.33;59.51
61345;BME280;47216;42.656;23.232;2023-04-02T05:34:50;93063.53;;;8.48;59.57
61345;BME280;47216;42.656;23.232;2023-04-02T05:37:22;93069.25;;;8.55;58.52
61345;BME280;47216;42.656;23.232;2023-04-02T05:39:52;93070.09;;;8.71;57.57
61345;BME280;47216;42.656;23.232;2023-04-02T05:42:21;93070.41;;;8.79;57.42
61345;BME280;47216;42.656;23.232;2023-04-02T05:44:58;93067.59;;;8.96;57.61
61345;BME280;47216;42.656;23.232;2023-04-02T05:47:30;93079.63;;;9.13;57.03
61345;BME280;47216;42.656;23.232;2023-04-02T05:50:11;93078.84;;;9.17;56.41
61345;BME280;47216;42.656;23.232;2023-04-02T05:52:46;93086.66;;;9.33;56.73
61345;BME280;47216;42.656;23.232;2023-04-02T05:55:30;93073.94;;;9.46;55.44
61345;BME280;47216;42.656;23.232;2023-04-02T05:58:05;93078.09;;;9.53;55.28
61345;BME280;47216;42.656;23.232;2023-04-02T06:00:50;93083.03;;;9.70;54.77
61345;BME280;47216;42.656;23.232;2023-04-02T06:03:24;93089.81;;;9.81;54.39
61345;BME280;47216;42.656;23.232;2023-04-02T06:05:57;93088.78;;;9.87;53.51
61345;BME280;47216;42.656;23.232;2023-04-02T06:08:30;93083.53;;;10.02;53.92
61345;BME280;47216;42.656;23.232;2023-04-02T06:11:05;93081.44;;;10.09;54.18
61345;BME280;47216;42.656;23.232;2023-04-02T06:13:33;93086.66;;;10.09;53.05
61345;BME280;47216;42.656;23.232;2023-04-02T06:16:00;93088.78;;;10.07;52.37
61345;BME280;47216;42.656;23.232;2023-04-02T06:18:29;93074.16;;;10.17;53.08
61345;BME280;47216;42.656;23.232;2023-04-02T06:20:57;93077.53;;;10.27;52.25
61345;BME280;47216;42.656;23.232;2023-04-02T06:23:31;93076.75;;;10.42;51.34
61345;BME280;47216;42.656;23.232;2023-04-02T06:26:02;93090.25;;;10.60;53.91
61345;BME280;47216;42.656;23.232;2023-04-02T06:28:37;93076.94;;;10.61;50.64
61345;BME280;47216;42.656;23.232;2023-04-02T06:31:09;93089.47;;;10.59;51.11
61345;BME280;47216;42.656;23.232;2023-04-02T06:33:37;93089.19;;;10.56;51.59
61345;BME280;47216;42.656;23.232;2023-04-02T06:36:05;93088.09;;;10.72;50.79
61345;BME280;47216;42.656;23.232;2023-04-02T06:38:35;93084.97;;;10.75;49.11
61345;BME280;47216;42.656;23.232;2023-04-02T06:41:04;93083.66;;;10.78;49.96
61345;BME280;47216;42.656;23.232;2023-04-02T06:43:37;93080.53;;;10.76;50.54
61345;BME280;47216;42.656;23.232;2023-04-02T06:46:09;93094.59;;;10.85;49.90
61345;BME280;47216;42.656;23.232;2023-04-02T06:48:39;93088.50;;;11.00;49.13
61345;BME280;47216;42.656;23.232;2023-04-02T06:51:10;93089.78;;;11.07;49.19
61345;BME280;47216;42.656;23.232;2023-04-02T06:53:41;93095.78;;;11.08;49.50
61345;BME280;47216;42.656;23.232;2023-04-02T06:56:18;93102.06;;;11.02;49.59
61345;BME280;47216;42.656;23.232;2023-04-02T06:58:47;93120.31;;;11.12;49.10
61345;BME280;47216;42.656;23.232;2023-04-02T07:01:17;93107.28;;;11.02;49.34
61345;BME280;47216;42.656;23.232;2023-04-02T07:03:45;93106.22;;;11.08;48.89
61345;BME280;47216;42.656;23.232;2023-04-02T07:06:14;93121.13;;;10.97;49.24
61345;BME280;47216;42.656;23.232;2023-04-02T07:08:42;93114.88;;;10.98;49.58
61345;BME280;47216;42.656;23.232;2023-04-02T07:11:12;93114.59;;;11.00;49.41
61345;BME280;47216;42.656;23.232;2023-04-02T07:13:39;93114.00;;;11.18;49.83
61345;BME280;47216;42.656;23.232;2023-04-02T07:16:11;93121.53;;;11.25;49.25
61345;BME280;47216;42.656;23.232;2023-04-02T07:18:40;93122.06;;;11.22;48.91
61345;BME280;47216;42.656;23.232;2023-04-02T07:21:07;93126.56;;;11.11;48.38
61345;BME280;47216;42.656;23.232;2023-04-02T07:23:34;93130.16;;;11.25;49.43
61345;BME280;47216;42.656;23.232;2023-04-02T07:26:03;93134.25;;;11.42;49.19
61345;BME280;47216;42.656;23.232;2023-04-02T07:28:30;93121.63;;;11.54;49.60
61345;BME280;47216;42.656;23.232;2023-04-02T07:30:57;93127.53;;;11.70;49.37
61345;BME280;47216;42.656;23.232;2023-04-02T07:33:26;93128.34;;;11.65;48.13
61345;BME280;47216;42.656;23.232;2023-04-02T07:35:54;93122.63;;;11.63;48.59
61345;BME280;47216;42.656;23.232;2023-04-02T07:38:21;93119.66;;;11.75;48.66
61345;BME280;47216;42.656;23.232;2023-04-02T07:40:49;93138.16;;;11.84;48.88
61345;BME280;47216;42.656;23.232;2023-04-02T07:43:17;93128.97;;;11.91;48.86
61345;BME280;47216;42.656;23.232;2023-04-02T07:45:43;93128.66;;;11.98;49.20
61345;BME280;47216;42.656;23.232;2023-04-02T07:48:12;93135.97;;;12.01;49.09
61345;BME280;47216;42.656;23.232;2023-04-02T07:50:39;93124.38;;;12.12;48.62
61345;BME280;47216;42.656;23.232;2023-04-02T07:53:06;93125.84;;;12.24;48.21
61345;BME280;47216;42.656;23.232;2023-04-02T07:55:33;93125.03;;;12.28;48.77
61345;BME280;47216;42.656;23.232;2023-04-02T07:58:00;93122.41;;;12.28;48.78
61345;BME280;47216;42.656;23.232;2023-04-02T08:00:29;93126.09;;;12.27;48.48
61345;BME280;47216;42.656;23.232;2023-04-02T08:02:56;93123.69;;;12.31;47.78
61345;BME280;47216;42.656;23.232;2023-04-02T08:05:23;93136.25;;;12.29;47.89
61345;BME280;47216;42.656;23.232;2023-04-02T08:07:54;93136.75;;;12.31;48.27
61345;BME280;47216;42.656;23.232;2023-04-02T08:10:21;93136.09;;;12.20;48.42
61345;BME280;47216;42.656;23.232;2023-04-02T08:12:48;93139.44;;;12.26;48.40
61345;BME280;47216;42.656;23.232;2023-04-02T08:15:15;93135.72;;;12.32;48.15
61345;BME280;47216;42.656;23.232;2023-04-02T08:17:44;93131.91;;;12.48;48.04
61345;BME280;47216;42.656;23.232;2023-04-02T08:20:15;93148.00;;;12.60;47.92
61345;BME280;47216;42.656;23.232;2023-04-02T08:22:43;93146.13;;;12.37;47.86
61345;BME280;47216;42.656;23.232;2023-04-02T08:25:10;93141.66;;;12.37;48.06
61345;BME280;47216;42.656;23.232;2023-04-02T08:27:37;93147.09;;;12.46;47.42
61345;BME280;47216;42.656;23.232;2023-04-02T08:30:05;93146.53;;;12.49;46.97
61345;BME280;47216;42.656;23.232;2023-04-02T08:32:33;93144.41;;;12.51;47.78
61345;BME280;47216;42.656;23.232;2023-04-02T08:35:02;93153.53;;;12.54;46.59
61345;BME280;47216;42.656;23.232;2023-04-02T08:37:29;93150.09;;;12.58;46.89
61345;BME280;47216;42.656;23.232;2023-04-02T08:39:55;93153.22;;;12.60;47.17
61345;BME280;47216;42.656;23.232;2023-04-02T08:42:28;93150.84;;;12.64;46.95
61345;BME280;47216;42.656;23.232;2023-04-02T08:45:04;93149.28;;;12.63;48.03
61345;BME280;47216;42.656;23.232;2023-04-02T08:47:38;93151.50;;;12.75;48.14
61345;BME280;47216;42.656;23.232;2023-04-02T08:50:14;93151.72;;;13.02;46.42
61345;BME280;47216;42.656;23.232;2023-04-02T08:52:45;93163.03;;;12.98;45.86
61345;BME280;47216;42.656;23.232;2023-04-02T08:55:18;93156.31;;;12.92;46.20
61345;BME280;47216;42.656;23.232;2023-04-02T08:57:55;93170.38;;;12.72;46.62
61345;BME280;47216;42.656;23.232;2023-04-02T09:00:31;93147.94;;;12.66;46.48
61345;BME280;47216;42.656;23.232;2023-04-02T09:03:01;93145.94;;;12.81;46.91
61345;BME280;47216;42.656;23.232;2023-04-02T09:05:37;93150.84;;;12.88;46.11
61345;BME280;47216;42.656;23.232;2023-04-02T09:08:14;93142.84;;;13.03;45.53
61345;BME280;47216;42.656;23.232;2023-04-02T09:10:47;93138.25;;;13.14;44.90
61345;BME280;47216;42.656;23.232;2023-04-02T09:13:20;93140.16;;;13.33;45.05
61345;BME280;47216;42.656;23.232;2023-04-02T09:15:49;93139.47;;;13.46;45.06
61345;BME280;47216;42.656;23.232;2023-04-02T09:18:18;93150.69;;;13.47;44.90
61345;BME280;47216;42.656;23.232;2023-04-02T09:20:47;93160.50;;;13.60;45.02
61345;BME280;47216;42.656;23.232;2023-04-02T09:23:16;93150.50;;;13.62;44.50
61345;BME280;47216;42.656;23.232;2023-04-02T09:25:46;93150.31;;;13.77;43.99
61345;BME280;47216;42.656;23.232;2023-04-02T09:28:13;93151.84;;;13.78;42.03
61345;BME280;47216;42.656;23.232;2023-04-02T09:33:43;93145.19;;;13.67;44.17
61345;BME280;47216;42.656;23.232;2023-04-02T09:36:33;93150.59;;;13.57;44.21
61345;BME280;47216;42.656;23.232;2023-04-02T09:39:03;93149.66;;;13.48;44.69
61345;BME280;47216;42.656;23.232;2023-04-02T09:41:33;93135.41;;;13.54;44.36
61345;BME280;47216;42.656;23.232;2023-04-02T09:44:16;93136.56;;;13.66;44.44
61345;BME280;47216;42.656;23.232;2023-04-02T09:46:52;93131.66;;;13.79;43.28
61345;BME280;47216;42.656;23.232;2023-04-02T09:49:22;93129.28;;;13.82;44.22
61345;BME280;47216;42.656;23.232;2023-04-02T09:54:43;93135.63;;;13.95;42.62
61345;BME280;47216;42.656;23.232;2023-04-02T09:57:18;93128.66;;;14.04;41.90
61345;BME280;47216;42.656;23.232;2023-04-02T10:00:06;93126.56;;;14.20;42.43
61345;BME280;47216;42.656;23.232;2023-04-02T10:02:34;93121.56;;;14.24;42.77
61345;BME280;47216;42.656;23.232;2023-04-02T10:05:02;93118.31;;;14.13;42.60
61345;BME280;47216;42.656;23.232;2023-04-02T10:07:32;93124.41;;;14.08;43.01
61345;BME280;47216;42.656;23.232;2023-04-02T10:10:11;93113.56;;;14.15;43.17
61345;BME280;47216;42.656;23.232;2023-04-02T10:12:43;93122.59;;;14.23;43.22
61345;BME280;47216;42.656;23.232;2023-04-02T10:15:15;93118.34;;;14.27;42.27
61345;BME280;47216;42.656;23.232;2023-04-02T10:17:44;93113.19;;;14.22;42.14
61345;BME280;47216;42.656;23.232;2023-04-02T10:20:18;93111.16;;;14.19;42.11
61345;BME280;47216;42.656;23.232;2023-04-02T10:22:47;93104.34;;;14.18;42.33
61345;BME280;47216;42.656;23.232;2023-04-02T10:25:16;93113.22;;;14.36;43.63
61345;BME280;47216;42.656;23.232;2023-04-02T10:27:49;93107.50;;;14.47;42.88
61345;BME280;47216;42.656;23.232;2023-04-02T10:30:22;93105.97;;;14.46;42.63
61345;BME280;47216;42.656;23.232;2023-04-02T10:32:54;93103.53;;;14.50;41.45
61345;BME280;47216;42.656;23.232;2023-04-02T10:35:34;93111.72;;;14.62;42.38
61345;BME280;47216;42.656;23.232;2023-04-02T10:40:59;93108.00;;;14.49;40.97
61345;BME280;47216;42.656;23.232;2023-04-02T10:43:55;93105.66;;;14.48;41.13
61345;BME280;47216;42.656;23.232;2023-04-02T10:46:27;93104.13;;;14.47;41.10
61345;BME280;47216;42.656;23.232;2023-04-02T10:49:04;93105.53;;;14.58;41.64
61345;BME280;47216;42.656;23.232;2023-04-02T10:51:38;93108.22;;;14.67;41.43
61345;BME280;47216;42.656;23.232;2023-04-02T10:54:21;93099.78;;;14.56;41.41
61345;BME280;47216;42.656;23.232;2023-04-02T10:56:56;93106.25;;;14.45;41.92
61345;BME280;47216;42.656;23.232;2023-04-02T10:59:26;93090.41;;;14.50;41.74
61345;BME280;47216;42.656;23.232;2023-04-02T11:01:56;93097.16;;;14.70;41.87
61345;BME280;47216;42.656;23.232;2023-04-02T11:04:28;93083.19;;;14.75;41.08
61345;BME280;47216;42.656;23.232;2023-04-02T11:06:57;93096.28;;;14.75;41.20
61345;BME280;47216;42.656;23.232;2023-04-02T11:09:29;93109.09;;;14.62;41.89
61345;BME280;47216;42.656;23.232;2023-04-02T11:11:59;93108.19;;;14.53;43.51
61345;BME280;47216;42.656;23.232;2023-04-02T11:14:29;93111.09;;;14.38;43.41
61345;BME280;47216;42.656;23.232;2023-04-02T11:16:58;93110.69;;;14.31;43.94
61345;BME280;47216;42.656;23.232;2023-04-02T11:19:28;93105.53;;;14.39;43.84
61345;BME280;47216;42.656;23.232;2023-04-02T11:21:56;93108.88;;;14.45;44.49
61345;BME280;47216;42.656;23.232;2023-04-02T11:24:30;93100.84;;;14.55;45.35
61345;BME280;47216;42.656;23.232;2023-04-02T11:27:16;93099.28;;;14.54;43.41
61345;BME280;47216;42.656;23.232;2023-04-02T11:29:45;93109.81;;;14.35;43.50
61345;BME280;47216;42.656;23.232;2023-04-02T11:32:40;93095.50;;;14.27;44.08
61345;BME280;47216;42.656;23.232;2023-04-02T11:35:34;93094.84;;;14.36;44.21
61345;BME280;47216;42.656;23.232;2023-04-02T11:38:08;93091.75;;;14.34;44.41
61345;BME280;47216;42.656;23.232;2023-04-02T11:40:49;93087.19;;;14.39;43.20
61345;BME280;47216;42.656;23.232;2023-04-02T11:43:47;93086.84;;;14.60;43.67
61345;BME280;47216;42.656;23.232;2023-04-02T11:46:40;93084.91;;;14.65;43.06
61345;BME280;47216;42.656;23.232;2023-04-02T11:49:35;93083.84;;;14.66;43.29
61345;BME280;47216;42.656;23.232;2023-04-02T11:52:17;93083.00;;;14.38;42.61
61345;BME280;47216;42.656;23.232;2023-04-02T11:54:45;93082.81;;;14.48;43.37
61345;BME280;47216;42.656;23.232;2023-04-02T11:57:31;93084.81;;;14.57;43.67
61345;BME280;47216;42.656;23.232;2023-04-02T12:00:17;93086.81;;;14.46;43.23
61345;BME280;47216;42.656;23.232;2023-04-02T12:02:55;93088.66;;;14.45;43.64
61345;BME280;47216;42.656;23.232;2023-04-02T12:05:30;93091.38;;;14.40;43.88
61345;BME280;47216;42.656;23.232;2023-04-02T12:08:14;93083.13;;;14.47;43.59
61345;BME280;47216;42.656;23.232;2023-04-02T12:11:04;93071.69;;;14.57;43.15
61345;BME280;47216;42.656;23.232;2023-04-02T12:13:51;93075.38;;;14.69;43.69
61345;BME280;47216;42.656;23.232;2023-04-02T12:16:21;93081.44;;;14.84;43.78
61345;BME280;47216;42.656;23.232;2023-04-02T12:18:50;93079.84;;;14.97;43.67
61345;BME280;47216;42.656;23.232;2023-04-02T12:21:21;93076.84;;;15.03;42.67
61345;BME280;47216;42.656;23.232;2023-04-02T12:23:50;93082.28;;;15.07;41.45
61345;BME280;47216;42.656;23.232;2023-04-02T12:26:36;93074.44;;;15.29;41.08
61345;BME280;47216;42.656;23.232;2023-04-02T12:29:30;93071.69;;;15.48;40.46
61345;BME280;47216;42.656;23.232;2023-04-02T12:31:59;93070.41;;;15.60;40.33
61345;BME280;47216;42.656;23.232;2023-04-02T12:34:27;93066.03;;;15.55;39.76
61345;BME280;47216;42.656;23.232;2023-04-02T12:36:56;93068.75;;;15.50;40.21
61345;BME280;47216;42.656;23.232;2023-04-02T12:39:27;93052.94;;;15.41;40.17
61345;BME280;47216;42.656;23.232;2023-04-02T12:41:54;93061.06;;;15.53;40.75
61345;BME280;47216;42.656;23.232;2023-04-02T12:44:22;93053.72;;;15.42;40.22
61345;BME280;47216;42.656;23.232;2023-04-02T12:46:49;93052.78;;;15.60;39.57
61345;BME280;47216;42.656;23.232;2023-04-02T12:49:32;93060.34;;;15.62;40.13
61345;BME280;47216;42.656;23.232;2023-04-02T12:52:02;93050.72;;;15.57;39.76
61345;BME280;47216;42.656;23.232;2023-04-02T12:54:32;93047.97;;;15.76;39.56
61345;BME280;47216;42.656;23.232;2023-04-02T12:57:27;93038.47;;;15.89;39.37
61345;BME280;47216;42.656;23.232;2023-04-02T12:59:56;93045.31;;;15.99;39.09
61345;BME280;47216;42.656;23.232;2023-04-02T13:02:25;93045.78;;;16.23;39.93
61345;BME280;47216;42.656;23.232;2023-04-02T13:04:55;93039.41;;;16.24;38.96
61345;BME280;47216;42.656;23.232;2023-04-02T13:07:26;93041.28;;;15.92;39.14
61345;BME280;47216;42.656;23.232;2023-04-02T13:09:56;93050.00;;;16.02;39.95
61345;BME280;47216;42.656;23.232;2023-04-02T13:12:25;93046.56;;;16.01;39.15
61345;BME280;47216;42.656;23.232;2023-04-02T13:14:54;93047.72;;;15.86;38.54
61345;BME280;47216;42.656;23.232;2023-04-02T13:17:41;93038.75;;;15.87;38.45
61345;BME280;47216;42.656;23.232;2023-04-02T13:20:30;93041.63;;;16.00;38.86
61345;BME280;47216;42.656;23.232;2023-04-02T13:22:59;93044.34;;;16.17;38.78
61345;BME280;47216;42.656;23.232;2023-04-02T13:25:29;93046.13;;;16.30;39.23
61345;BME280;47216;42.656;23.232;2023-04-02T13:27:56;93035.88;;;16.29;39.41
61345;BME280;47216;42.656;23.232;2023-04-02T13:30:25;93040.00;;;16.44;39.36
61345;BME280;47216;42.656;23.232;2023-04-02T13:32:52;93037.88;;;16.63;39.86